createdAt,value
2018-09-21T00:00:47.630Z,60.40
2018-09-21T00:03:16.039Z,60.80
2018-09-21T00:05:44.428Z,60.70
2018-09-21T00:08:12.761Z,60.60
2018-09-21T00:10:41.107Z,59.80
2018-09-21T00:13:09.441Z,59.30
2018-09-21T00:15:37.803Z,59.00
2018-09-21T00:18:06.174Z,58.80
2018-09-21T00:20:34.543Z,58.60
2018-09-21T00:23:02.930Z,58.90
2018-09-21T00:25:31.312Z,59.00
2018-09-21T00:27:59.685Z,58.90
2018-09-21T00:30:28.039Z,59.50
2018-09-21T00:32:56.456Z,59.80
2018-09-21T00:35:24.847Z,60.30
2018-09-21T00:37:53.195Z,60.80
2018-09-21T00:40:21.631Z,61.20
2018-09-21T00:42:50.038Z,61.30
2018-09-21T00:45:18.442Z,61.50
2018-09-21T00:47:46.841Z,60.90
2018-09-21T00:50:15.212Z,60.70
2018-09-21T00:52:43.557Z,60.40
2018-09-21T00:55:11.941Z,60.10
2018-09-21T00:57:40.393Z,59.80
2018-09-21T01:00:08.832Z,59.60
2018-09-21T01:02:37.199Z,59.20
2018-09-21T01:05:05.610Z,58.90
2018-09-21T01:07:33.970Z,58.80
2018-09-21T01:10:02.353Z,58.90
2018-09-21T01:12:30.722Z,59.40
2018-09-21T01:14:59.074Z,59.80
2018-09-21T01:17:27.432Z,60.10
2018-09-21T01:19:55.956Z,59.70
2018-09-21T01:22:24.353Z,59.50
2018-09-21T01:24:52.723Z,59.90
2018-09-21T01:27:21.115Z,59.60
2018-09-21T01:29:49.466Z,59.90
2018-09-21T01:32:17.835Z,59.80
2018-09-21T01:34:46.185Z,60.80
2018-09-21T01:37:14.605Z,60.90
2018-09-21T01:39:42.982Z,62.10
2018-09-21T01:42:11.394Z,61.50
2018-09-21T01:44:39.835Z,61.60
2018-09-21T01:47:09.093Z,62.00
2018-09-21T01:49:37.490Z,62.40
2018-09-21T01:52:05.911Z,62.80
2018-09-21T01:54:34.272Z,63.00
2018-09-21T01:57:02.656Z,63.20
2018-09-21T01:59:31.033Z,63.40
2018-09-21T02:01:59.461Z,63.60
2018-09-21T02:04:33.264Z,63.70
2018-09-21T02:07:01.648Z,63.80
2018-09-21T02:09:30.126Z,63.80
2018-09-21T02:11:58.467Z,63.90
2018-09-21T02:14:26.811Z,64.10
2018-09-21T02:16:55.218Z,64.30
2018-09-21T02:19:23.585Z,64.10
2018-09-21T02:21:52.499Z,63.80
2018-09-21T02:24:21.590Z,63.90
2018-09-21T02:26:50.482Z,63.70
2018-09-21T02:29:18.852Z,63.30
2018-09-21T02:31:47.982Z,63.20
2018-09-21T02:34:16.649Z,63.10
2018-09-21T02:36:45.045Z,63.20
2018-09-21T02:39:13.443Z,63.30
2018-09-21T02:41:41.842Z,63.40
2018-09-21T02:44:10.245Z,63.60
2018-09-21T02:46:38.652Z,63.70
2018-09-21T02:49:07.117Z,63.60
2018-09-21T02:51:35.529Z,63.60
2018-09-21T02:54:03.965Z,63.60
2018-09-21T02:56:32.411Z,63.90
2018-09-21T02:59:00.773Z,64.00
2018-09-21T03:01:29.198Z,64.00
2018-09-21T03:03:57.647Z,64.20
2018-09-21T03:06:26.040Z,64.40
2018-09-21T03:08:54.440Z,64.70
2018-09-21T03:11:22.822Z,65.00
2018-09-21T03:13:51.200Z,65.10
2018-09-21T03:16:19.601Z,65.20
2018-09-21T03:18:48.234Z,65.30
2018-09-21T03:21:16.617Z,65.50
2018-09-21T03:23:45.281Z,65.40
2018-09-21T03:26:13.667Z,65.80
2018-09-21T03:28:42.038Z,65.60
2018-09-21T03:31:10.518Z,65.70
2018-09-21T03:33:39.125Z,66.00
2018-09-21T03:36:07.493Z,66.40
2018-09-21T03:38:35.878Z,66.50
2018-09-21T03:41:04.210Z,66.50
2018-09-21T03:43:32.701Z,66.60
2018-09-21T03:46:01.091Z,66.70
2018-09-21T03:48:29.495Z,66.90
2018-09-21T03:50:57.886Z,67.20
2018-09-21T03:53:26.282Z,67.20
2018-09-21T03:55:54.679Z,67.80
2018-09-21T03:58:23.230Z,67.70
2018-09-21T04:00:51.611Z,67.90
2018-09-21T04:03:20.039Z,68.10
2018-09-21T04:05:48.459Z,68.40
2018-09-21T04:08:16.895Z,68.70
2018-09-21T04:10:45.283Z,68.90
2018-09-21T04:13:13.706Z,69.10
2018-09-21T04:15:42.092Z,69.20
2018-09-21T04:18:10.509Z,69.60
2018-09-21T04:20:38.941Z,69.90
2018-09-21T04:23:07.452Z,70.10
2018-09-21T04:25:35.861Z,70.30
2018-09-21T04:28:04.307Z,70.70
2018-09-21T04:30:32.741Z,70.80
2018-09-21T04:33:01.154Z,71.20
2018-09-21T04:35:29.853Z,71.20
2018-09-21T04:37:58.473Z,71.40
2018-09-21T04:40:26.889Z,71.60
2018-09-21T04:42:55.321Z,72.50
2018-09-21T04:45:23.779Z,72.00
2018-09-21T04:47:52.325Z,72.60
2018-09-21T04:50:20.785Z,72.60
2018-09-21T04:52:49.266Z,72.30
2018-09-21T04:55:17.848Z,71.60
2018-09-21T04:57:46.353Z,71.50
2018-09-21T05:00:14.747Z,71.60
2018-09-21T05:02:43.533Z,71.50
2018-09-21T05:05:11.948Z,71.60
2018-09-21T05:07:40.468Z,71.60
2018-09-21T05:10:08.889Z,71.50
2018-09-21T05:12:37.342Z,71.40
2018-09-21T05:15:06.418Z,71.40
2018-09-21T05:17:34.801Z,71.20
2018-09-21T05:20:03.199Z,71.20
2018-09-21T05:22:31.592Z,71.30
2018-09-21T05:25:00.025Z,71.00
2018-09-21T05:27:28.498Z,71.00
2018-09-21T05:29:56.971Z,70.90
2018-09-21T05:32:25.527Z,70.80
2018-09-21T05:34:54.150Z,70.70
2018-09-21T05:37:22.529Z,70.60
2018-09-21T05:39:51.028Z,70.90
2018-09-21T05:42:19.458Z,70.70
2018-09-21T05:44:47.958Z,70.30
2018-09-21T05:47:22.920Z,69.80
2018-09-21T05:49:51.396Z,69.80
2018-09-21T05:52:19.867Z,69.30
2018-09-21T05:54:48.857Z,69.10
2018-09-21T05:57:17.290Z,68.80
2018-09-21T05:59:45.687Z,68.60
2018-09-21T06:02:14.450Z,68.50
2018-09-21T06:04:42.795Z,68.30
2018-09-21T06:07:11.332Z,68.10
2018-09-21T06:09:39.743Z,67.70
2018-09-21T06:12:08.204Z,67.40
2018-09-21T06:14:36.626Z,67.00
2018-09-21T06:17:05.197Z,66.90
2018-09-21T06:19:34.130Z,66.60
2018-09-21T06:22:02.684Z,66.30
2018-09-21T06:24:31.503Z,66.20
2018-09-21T06:27:00.519Z,65.90
2018-09-21T06:29:29.479Z,65.60
2018-09-21T06:31:59.619Z,65.30
2018-09-21T06:34:28.553Z,65.00
2018-09-21T06:36:57.064Z,65.20
2018-09-21T06:39:25.474Z,64.10
2018-09-21T06:41:54.163Z,63.80
2018-09-21T06:44:22.661Z,63.60
2018-09-21T06:46:51.032Z,63.00
2018-09-21T06:49:19.447Z,62.80
2018-09-21T06:51:47.916Z,62.30
2018-09-21T06:54:16.463Z,61.50
2018-09-21T06:56:44.870Z,61.60
2018-09-21T06:59:13.345Z,61.10
2018-09-21T07:01:41.822Z,60.40
2018-09-21T07:04:10.308Z,60.30
2018-09-21T07:06:38.898Z,60.60
2018-09-21T07:09:10.965Z,60.20
2018-09-21T07:11:39.464Z,60.00
2018-09-21T07:14:07.936Z,59.80
2018-09-21T07:16:36.477Z,59.90
2018-09-21T07:19:04.874Z,59.80
2018-09-21T07:21:33.310Z,59.60
2018-09-21T07:24:01.809Z,59.60
2018-09-21T07:26:30.195Z,59.50
2018-09-21T07:28:58.678Z,59.50
2018-09-21T07:31:27.119Z,59.40
2018-09-21T07:33:55.668Z,60.00
2018-09-21T07:36:24.120Z,58.70
2018-09-21T07:38:52.515Z,58.10
2018-09-21T07:41:20.944Z,57.80
2018-09-21T07:43:49.335Z,57.50
2018-09-21T07:46:17.743Z,57.10
2018-09-21T07:48:46.202Z,56.80
2018-09-21T07:51:14.696Z,56.40
2018-09-21T07:53:43.084Z,56.10
2018-09-21T07:56:11.538Z,55.80
2018-09-21T07:58:40.039Z,55.20
2018-09-21T08:01:08.596Z,54.90
2018-09-21T08:03:36.976Z,54.40
2018-09-21T08:06:05.393Z,54.40
2018-09-21T08:08:33.759Z,54.00
2018-09-21T08:11:02.201Z,54.10
2018-09-21T08:13:30.602Z,53.70
2018-09-21T08:15:59.019Z,53.60
2018-09-21T08:18:27.461Z,53.50
2018-09-21T08:20:55.898Z,54.10
2018-09-21T08:23:24.318Z,53.90
2018-09-21T08:25:52.739Z,53.40
2018-09-21T08:28:21.153Z,52.80
2018-09-21T08:30:49.603Z,52.20
2018-09-21T08:33:18.068Z,51.30
2018-09-21T08:35:46.433Z,50.60
2018-09-21T08:38:14.818Z,50.40
2018-09-21T08:40:43.269Z,50.10
2018-09-21T08:43:11.774Z,49.20
2018-09-21T08:45:40.226Z,49.30
2018-09-21T08:48:08.767Z,48.30
2018-09-21T08:50:37.191Z,48.20
2018-09-21T08:53:06.051Z,48.40
2018-09-21T08:55:34.590Z,47.80
2018-09-21T08:58:03.474Z,47.20
2018-09-21T09:00:31.976Z,47.80
2018-09-21T09:03:00.397Z,47.00
2018-09-21T09:05:28.783Z,46.70
2018-09-21T09:07:57.214Z,46.10
2018-09-21T09:10:25.680Z,45.30
2018-09-21T09:12:54.110Z,44.30
2018-09-21T09:15:22.585Z,44.20
2018-09-21T09:17:51.267Z,44.00
2018-09-21T09:20:19.683Z,43.40
2018-09-21T09:22:48.202Z,42.90
2018-09-21T09:25:16.683Z,42.70
2018-09-21T09:27:45.128Z,42.00
2018-09-21T09:30:13.576Z,41.60
2018-09-21T09:32:42.068Z,41.80
2018-09-21T09:35:10.600Z,42.00
2018-09-21T09:37:39.224Z,41.90
2018-09-21T09:40:07.651Z,41.60
2018-09-21T09:42:36.104Z,41.80
2018-09-21T09:45:04.521Z,41.80
2018-09-21T09:47:32.956Z,41.40
2018-09-21T09:50:01.328Z,41.30
2018-09-21T09:52:29.851Z,41.50
2018-09-21T09:54:58.435Z,41.40
2018-09-21T09:57:26.844Z,41.40
2018-09-21T09:59:55.365Z,40.80
2018-09-21T10:02:23.876Z,40.50
2018-09-21T10:04:52.378Z,40.10
2018-09-21T10:07:20.819Z,39.90
2018-09-21T10:09:49.282Z,39.80
2018-09-21T10:12:17.777Z,38.20
2018-09-21T10:14:46.204Z,37.90
2018-09-21T10:17:14.685Z,37.50
2018-09-21T10:19:43.510Z,37.50
2018-09-21T10:22:13.473Z,37.60
2018-09-21T10:24:41.933Z,37.90
2018-09-21T10:27:10.557Z,38.30
2018-09-21T10:29:39.044Z,38.30
2018-09-21T10:32:07.471Z,38.20
2018-09-21T10:34:36.121Z,38.30
2018-09-21T10:37:04.550Z,38.00
2018-09-21T10:39:32.953Z,38.00
2018-09-21T10:42:01.394Z,38.10
2018-09-21T10:44:29.809Z,38.20
2018-09-21T10:46:58.342Z,38.10
2018-09-21T10:49:26.706Z,38.40
2018-09-21T10:51:55.096Z,39.00
2018-09-21T10:54:23.551Z,38.70
2018-09-21T10:56:52.029Z,38.90
2018-09-21T10:59:20.412Z,38.50
2018-09-21T11:01:48.843Z,37.80
2018-09-21T11:04:17.285Z,36.90
2018-09-21T11:06:45.766Z,36.30
2018-09-21T11:09:14.182Z,35.90
2018-09-21T11:11:42.629Z,35.70
2018-09-21T11:14:11.033Z,35.80
2018-09-21T11:16:39.504Z,36.00
2018-09-21T11:19:08.021Z,35.60
2018-09-21T11:21:36.520Z,34.60
2018-09-21T11:24:04.956Z,34.20
2018-09-21T11:26:33.457Z,34.30
2018-09-21T11:29:01.910Z,34.70
2018-09-21T11:31:30.311Z,35.50
2018-09-21T11:33:58.831Z,35.90
2018-09-21T11:36:27.328Z,36.40
2018-09-21T11:38:55.815Z,36.40
2018-09-21T11:41:24.328Z,35.80
2018-09-21T11:43:52.781Z,35.40
2018-09-21T11:46:21.187Z,35.40
2018-09-21T11:48:49.665Z,35.10
2018-09-21T11:51:18.091Z,35.10
2018-09-21T11:53:46.554Z,34.60
2018-09-21T11:56:14.977Z,34.30
2018-09-21T11:58:43.387Z,34.10
2018-09-21T12:01:11.812Z,34.10
2018-09-21T12:03:40.356Z,34.60
2018-09-21T12:06:09.057Z,34.60
2018-09-21T12:08:38.520Z,34.60
2018-09-21T12:11:07.968Z,35.30
2018-09-21T12:13:36.432Z,35.70
2018-09-21T12:16:04.890Z,36.10
2018-09-21T12:18:33.342Z,36.20
2018-09-21T12:21:01.766Z,36.40
2018-09-21T12:23:30.223Z,36.70
2018-09-21T12:25:58.643Z,36.90
2018-09-21T12:28:27.107Z,37.30
2018-09-21T12:30:55.602Z,37.60
2018-09-21T12:33:24.157Z,37.80
2018-09-21T12:35:52.769Z,38.50
2018-09-21T12:38:21.215Z,38.70
2018-09-21T12:40:49.594Z,39.10
2018-09-21T12:43:18.038Z,39.20
2018-09-21T12:45:46.581Z,39.30
2018-09-21T12:48:15.456Z,39.50
2018-09-21T12:50:44.177Z,39.60
2018-09-21T12:53:12.643Z,39.50
2018-09-21T12:55:41.159Z,39.50
2018-09-21T12:58:09.834Z,39.70
2018-09-21T13:00:43.396Z,39.90
2018-09-21T13:03:11.971Z,39.70
2018-09-21T13:05:40.468Z,40.00
2018-09-21T13:08:08.978Z,40.20
2018-09-21T13:10:37.428Z,40.30
2018-09-21T13:13:06.028Z,40.20
2018-09-21T13:15:34.529Z,40.00
2018-09-21T13:18:03.117Z,40.10
2018-09-21T13:20:32.602Z,40.20
2018-09-21T13:23:01.781Z,40.50
2018-09-21T13:25:30.330Z,40.60
2018-09-21T13:27:59.200Z,40.30
2018-09-21T13:30:27.674Z,40.60
2018-09-21T13:32:56.260Z,40.30
2018-09-21T13:35:24.892Z,40.40
2018-09-21T13:37:53.337Z,40.20
2018-09-21T13:40:21.926Z,40.10
2018-09-21T13:42:50.426Z,40.30
2018-09-21T13:45:19.190Z,40.60
2018-09-21T13:47:47.814Z,41.40
2018-09-21T13:50:16.365Z,41.10
2018-09-21T13:52:44.919Z,41.30
2018-09-21T13:55:13.803Z,41.40
2018-09-21T13:57:42.338Z,41.60
2018-09-21T14:00:12.198Z,41.90
2018-09-21T14:02:44.248Z,42.00
2018-09-21T14:07:52.771Z,42.20
2018-09-21T14:10:21.202Z,42.30
2018-09-21T14:12:49.731Z,42.50
2018-09-21T14:15:18.814Z,42.50
2018-09-21T14:17:47.720Z,42.60
2018-09-21T14:20:16.143Z,42.70
2018-09-21T14:22:44.590Z,42.80
2018-09-21T14:25:13.192Z,42.80
2018-09-21T14:27:41.809Z,43.00
2018-09-21T14:30:10.802Z,49.90
2018-09-21T14:32:39.469Z,55.70
2018-09-21T14:35:08.445Z,59.90
2018-09-21T14:37:37.097Z,64.50
2018-09-21T14:40:05.765Z,66.00
2018-09-21T14:42:34.330Z,67.40
2018-09-21T14:45:02.795Z,67.20
2018-09-21T14:47:31.403Z,68.70
2018-09-21T14:50:00.086Z,68.10
2018-09-21T14:52:28.950Z,70.20
2018-09-21T14:54:57.629Z,71.80
2018-09-21T14:57:27.219Z,71.30
2018-09-21T14:59:55.972Z,72.70
2018-09-21T15:02:24.665Z,74.10
2018-09-21T15:04:53.386Z,75.10
2018-09-21T15:07:22.218Z,74.50
2018-09-21T15:09:50.886Z,74.90
2018-09-21T15:12:20.275Z,76.10
2018-09-21T15:14:48.818Z,76.80
2018-09-21T15:17:17.327Z,77.20
2018-09-21T15:19:45.956Z,78.10
2018-09-21T15:22:14.636Z,77.40
2018-09-21T15:24:43.541Z,77.50
2018-09-21T15:27:12.216Z,76.90
2018-09-21T15:29:40.785Z,77.20
2018-09-21T15:32:09.539Z,76.70
2018-09-21T15:34:38.467Z,76.00
2018-09-21T15:37:07.260Z,75.80
2018-09-21T15:39:35.899Z,76.20
2018-09-21T15:42:05.820Z,75.30
2018-09-21T15:44:34.609Z,75.30
2018-09-21T15:47:03.719Z,75.30
2018-09-21T15:49:32.513Z,74.20
2018-09-21T15:52:01.248Z,75.50
2018-09-21T15:54:29.901Z,77.40
2018-09-21T15:56:58.637Z,77.60
2018-09-21T15:59:27.246Z,78.20
2018-09-21T16:01:55.962Z,78.30
2018-09-21T16:04:24.576Z,77.70
2018-09-21T16:06:53.186Z,79.10
2018-09-21T16:09:21.760Z,80.30
2018-09-21T16:11:57.148Z,80.40
2018-09-21T16:14:25.731Z,80.20
2018-09-21T16:16:54.890Z,81.90
2018-09-21T16:19:23.482Z,82.30
2018-09-21T16:21:52.070Z,84.10
2018-09-21T16:24:21.500Z,84.80
2018-09-21T16:26:50.699Z,85.00
2018-09-21T16:29:20.220Z,86.80
2018-09-21T16:31:49.180Z,88.00
2018-09-21T16:34:17.850Z,89.10
2018-09-21T16:36:46.549Z,89.60
2018-09-21T16:39:15.073Z,89.00
2018-09-21T16:41:43.571Z,89.20
2018-09-21T16:44:12.394Z,89.00
2018-09-21T16:46:41.226Z,90.20
2018-09-21T16:49:09.808Z,90.10
2018-09-21T16:51:38.613Z,90.80
2018-09-21T16:54:07.149Z,90.70
2018-09-21T16:56:40.039Z,91.20
2018-09-21T16:59:09.189Z,92.00
2018-09-21T17:01:38.093Z,91.80
2018-09-21T17:04:06.536Z,92.30
2018-09-21T17:06:35.118Z,91.90
2018-09-21T17:09:04.900Z,92.80
2018-09-21T17:11:33.445Z,92.30
2018-09-21T17:14:01.906Z,92.40
2018-09-21T17:16:30.301Z,92.30
2018-09-21T17:18:58.875Z,92.50
2018-09-21T17:21:27.336Z,92.30
2018-09-21T17:23:55.794Z,92.70
2018-09-21T17:26:24.238Z,92.70
2018-09-21T17:28:52.767Z,92.80
2018-09-21T17:31:21.200Z,92.80
2018-09-21T17:33:50.378Z,93.20
2018-09-21T17:36:18.777Z,93.80
2018-09-21T17:38:47.291Z,93.70
2018-09-21T17:41:15.751Z,94.10
2018-09-21T17:43:44.151Z,94.40
2018-09-21T17:46:12.805Z,94.80
2018-09-21T17:48:41.297Z,94.90
2018-09-21T17:51:09.775Z,94.70
2018-09-21T17:53:38.182Z,95.20
2018-09-21T17:56:06.671Z,95.80
2018-09-21T17:58:35.116Z,95.90
2018-09-21T18:01:03.632Z,96.00
2018-09-21T18:03:32.164Z,95.80
2018-09-21T18:06:00.709Z,96.30
2018-09-21T18:08:29.177Z,96.20
2018-09-21T18:10:57.536Z,95.90
2018-09-21T18:13:26.072Z,95.90
2018-09-21T18:15:54.618Z,95.30
2018-09-21T18:18:23.054Z,95.20
2018-09-21T18:20:51.513Z,95.10
2018-09-21T18:23:19.964Z,95.00
2018-09-21T18:25:48.562Z,94.70
2018-09-21T18:28:17.059Z,94.40
2018-09-21T18:30:45.511Z,94.30
2018-09-21T18:33:14.003Z,94.70
2018-09-21T18:35:42.858Z,95.10
2018-09-21T18:38:11.447Z,95.10
2018-09-21T18:40:40.364Z,95.10
2018-09-21T18:43:09.085Z,95.50
2018-09-21T18:45:37.489Z,95.60
2018-09-21T18:48:06.047Z,95.60
2018-09-21T18:50:34.464Z,95.70
2018-09-21T18:53:02.930Z,95.40
2018-09-21T18:55:31.819Z,95.30
2018-09-21T18:58:00.430Z,95.70
2018-09-21T19:00:28.982Z,96.10
2018-09-21T19:02:57.529Z,95.50
2018-09-21T19:05:25.980Z,95.30
2018-09-21T19:07:54.467Z,95.80
2018-09-21T19:10:23.101Z,95.30
2018-09-21T19:12:51.752Z,95.10
2018-09-21T19:15:20.193Z,94.70
2018-09-21T19:17:48.756Z,94.60
2018-09-21T19:20:17.228Z,94.80
2018-09-21T19:22:45.753Z,94.90
2018-09-21T19:25:14.521Z,94.80
2018-09-21T19:27:43.127Z,94.90
2018-09-21T19:30:11.689Z,94.90
2018-09-21T19:32:40.238Z,94.70
2018-09-21T19:35:08.683Z,94.70
2018-09-21T19:37:37.185Z,94.80
2018-09-21T19:40:05.661Z,94.70
2018-09-21T19:42:34.209Z,94.50
2018-09-21T19:45:02.759Z,94.40
2018-09-21T19:47:31.330Z,94.30
2018-09-21T19:49:59.795Z,94.70
2018-09-21T19:52:29.273Z,94.60
2018-09-21T19:55:11.476Z,94.50
2018-09-21T19:57:40.758Z,94.70
2018-09-21T20:00:09.595Z,94.70
2018-09-21T20:02:38.207Z,94.80
2018-09-21T20:05:06.789Z,95.00
2018-09-21T20:07:35.474Z,94.40
2018-09-21T20:10:04.227Z,94.50
2018-09-21T20:12:32.737Z,94.60
2018-09-21T20:15:01.242Z,94.60
2018-09-21T20:17:29.680Z,94.90
2018-09-21T20:19:58.855Z,95.30
2018-09-21T20:22:27.456Z,95.10
2018-09-21T20:24:56.117Z,94.90
2018-09-21T20:27:24.762Z,95.20
2018-09-21T20:29:57.626Z,94.40
2018-09-21T20:32:31.533Z,94.60
2018-09-21T20:35:00.349Z,94.80
2018-09-21T20:37:28.753Z,94.90
2018-09-21T20:39:57.311Z,95.10
2018-09-21T20:42:25.671Z,94.60
2018-09-21T20:44:54.173Z,94.40
2018-09-21T20:47:22.589Z,94.10
2018-09-21T20:49:51.020Z,93.50
2018-09-21T20:52:19.439Z,93.50
2018-09-21T20:54:47.974Z,93.30
2018-09-21T20:57:16.520Z,92.80
2018-09-21T20:59:44.984Z,92.70
2018-09-21T21:02:13.540Z,92.60
2018-09-21T21:04:41.938Z,92.40
2018-09-21T21:07:10.429Z,92.40
2018-09-21T21:09:38.835Z,92.10
2018-09-21T21:12:07.252Z,92.00
2018-09-21T21:14:35.861Z,91.80
2018-09-21T21:17:04.351Z,91.90
2018-09-21T21:19:32.819Z,91.70
2018-09-21T21:22:01.329Z,91.70
2018-09-21T21:24:29.886Z,91.20
2018-09-21T21:26:58.412Z,91.00
2018-09-21T21:29:26.984Z,90.90
2018-09-21T21:31:55.491Z,90.70
2018-09-21T21:34:24.009Z,90.60
2018-09-21T21:36:52.768Z,90.10
2018-09-21T21:39:21.191Z,90.00
2018-09-21T21:41:49.900Z,89.90
2018-09-21T21:44:18.736Z,89.70
2018-09-21T21:46:47.138Z,88.90
2018-09-21T21:49:15.631Z,88.40
2018-09-21T21:51:44.204Z,87.50
2018-09-21T21:54:12.752Z,86.90
2018-09-21T21:56:41.300Z,86.80
2018-09-21T21:59:09.904Z,85.50
2018-09-21T22:01:43.625Z,85.60
2018-09-21T22:04:12.217Z,84.00
2018-09-21T22:06:40.893Z,83.80
2018-09-21T22:09:10.325Z,83.80
2018-09-21T22:11:44.227Z,83.00
2018-09-21T22:14:13.321Z,81.90
2018-09-21T22:16:41.777Z,82.10
2018-09-21T22:19:11.064Z,81.90
2018-09-21T22:21:39.531Z,81.90
2018-09-21T22:24:08.024Z,81.60
2018-09-21T22:26:36.678Z,81.70
2018-09-21T22:29:05.236Z,82.80
2018-09-21T22:31:33.754Z,82.10
2018-09-21T22:34:02.242Z,81.20
2018-09-21T22:36:30.755Z,81.10
2018-09-21T22:38:59.754Z,80.70
2018-09-21T22:41:28.187Z,80.70
2018-09-21T22:43:56.649Z,80.40
2018-09-21T22:46:25.202Z,80.40
2018-09-21T22:49:23.028Z,80.40
2018-09-21T22:51:51.804Z,80.10
2018-09-21T22:54:20.772Z,80.30
2018-09-21T22:56:49.209Z,80.30
2018-09-21T22:59:17.692Z,80.20
2018-09-21T23:01:46.171Z,80.40
2018-09-21T23:04:14.724Z,80.30
2018-09-21T23:06:43.144Z,80.50
2018-09-21T23:09:12.954Z,80.50
2018-09-21T23:11:42.400Z,80.70
2018-09-21T23:14:11.363Z,80.80
2018-09-21T23:16:40.183Z,81.00
2018-09-21T23:19:08.895Z,81.00
2018-09-21T23:21:37.332Z,81.50
2018-09-21T23:24:05.745Z,81.20
2018-09-21T23:26:34.185Z,81.40
2018-09-21T23:29:02.620Z,80.60
2018-09-21T23:31:31.096Z,81.20
2018-09-21T23:33:59.528Z,81.30
2018-09-21T23:36:27.989Z,80.60
2018-09-21T23:38:56.389Z,80.30
2018-09-21T23:41:24.921Z,80.60
2018-09-21T23:43:53.364Z,80.60
2018-09-21T23:46:21.782Z,80.00
2018-09-21T23:48:50.271Z,80.30
2018-09-21T23:51:18.739Z,80.30
2018-09-21T23:53:47.225Z,79.00
2018-09-21T23:56:15.635Z,79.00
2018-09-21T23:58:44.031Z,79.30
